Time;durP1;ratioP1;P1;durP2;ratioP2;P2;SDS_P1;SDS_P2;PMS_P1;PMS_P2;Temp;Humidity;BMP_temperature;BMP_pressure;BME280_temperature;BME280_humidity;BME280_pressure;Samples;Min_cycle;Max_cycle;Signal;HPM_P1;HPM_P2
2022/02/13 00:01:37;;;;;;;3.92;2.10;;;;;;;;;;6242537;23;20016;-70
2022/02/13 00:04:03;;;;;;;2.83;1.45;;;;;;;;;;6242233;23;20107;-69
2022/02/13 00:06:29;;;;;;;1.25;1.25;;;;;;;;;;6242799;23;20031;-69
2022/02/13 00:08:55;;;;;;;4.28;1.50;;;;;;;;;;6242467;23;20433;-68
2022/02/13 00:11:21;;;;;;;3.22;1.40;;;;;;;;;;6242587;23;20360;-67
2022/02/13 00:13:47;;;;;;;1.77;1.67;;;;;;;;;;6215291;23;20043;-68
2022/02/13 00:16:14;;;;;;;1.15;1.13;;;;;;;;;;6242570;23;20008;-69
2022/02/13 00:18:40;;;;;;;2.08;1.63;;;;;;;;;;6242424;23;20012;-69
2022/02/13 00:21:07;;;;;;;2.10;1.95;;;;;;;;;;6242432;23;20066;-69
2022/02/13 00:23:32;;;;;;;1.92;1.83;;;;;;;;;;6241982;23;20016;-70
2022/02/13 00:25:58;;;;;;;2.38;1.98;;;;;;;;;;6241376;23;20019;-69
2022/02/13 00:28:24;;;;;;;1.70;1.60;;;;;;;;;;6241779;23;20020;-68
2022/02/13 00:30:50;;;;;;;1.58;1.48;;;;;;;;;;6241814;23;20082;-69
2022/02/13 00:33:16;;;;;;;3.47;1.77;;;;;;;;;;6241957;23;20016;-68
2022/02/13 00:35:45;;;;;;;2.15;1.55;;;;;;;;;;6241731;23;20403;-70
2022/02/13 00:38:11;;;;;;;4.40;2.50;;;;;;;;;;6242001;23;20054;-70
2022/02/13 00:40:36;;;;;;;1.95;1.73;;;;;;;;;;6215419;23;20012;-69
2022/02/13 00:43:04;;;;;;;2.10;1.90;;;;;;;;;;6241459;23;20100;-68
2022/02/13 00:45:30;;;;;;;2.50;2.05;;;;;;;;;;6241958;23;20429;-70
2022/02/13 00:47:55;;;;;;;2.20;2.10;;;;;;;;;;6241628;23;20145;-68
2022/02/13 00:50:21;;;;;;;3.92;2.60;;;;;;;;;;6242031;23;20004;-69
2022/02/13 00:52:47;;;;;;;2.97;2.28;;;;;;;;;;6241744;23;20015;-70
2022/02/13 00:55:13;;;;;;;3.42;2.13;;;;;;;;;;6241847;23;20070;-69
2022/02/13 00:57:39;;;;;;;2.67;1.52;;;;;;;;;;6189845;23;20020;-70
2022/02/13 01:00:06;;;;;;;2.05;1.88;;;;;;;;;;6241615;23;20008;-69
2022/02/13 01:02:32;;;;;;;4.95;2.88;;;;;;;;;;6241525;23;20158;-69
2022/02/13 01:04:58;;;;;;;2.47;2.25;;;;;;;;;;6241458;23;20058;-69
2022/02/13 01:07:23;;;;;;;2.42;2.15;;;;;;;;;;6214414;23;20008;-70
2022/02/13 01:09:49;;;;;;;4.65;2.50;;;;;;;;;;6241591;23;20046;-69
2022/02/13 01:12:15;;;;;;;2.25;1.98;;;;;;;;;;6241670;23;20449;-69
2022/02/13 01:14:40;;;;;;;3.00;2.58;;;;;;;;;;6241666;23;20428;-70
2022/02/13 01:17:06;;;;;;;2.42;2.15;;;;;;;;;;6241591;23;20091;-70
2022/02/13 01:19:32;;;;;;;2.10;1.90;;;;;;;;;;6214878;23;20530;-69
2022/02/13 01:22:00;;;;;;;1.92;1.83;;;;;;;;;;6241488;23;20012;-69
2022/02/13 01:24:26;;;;;;;2.75;2.28;;;;;;;;;;6241487;23;20273;-69
2022/02/13 01:26:52;;;;;;;2.58;1.65;;;;;;;;;;6241407;23;20063;-69
2022/02/13 01:29:18;;;;;;;6.13;2.10;;;;;;;;;;6241574;23;20016;-69
2022/02/13 01:31:44;;;;;;;1.30;1.25;;;;;;;;;;6215092;23;20087;-69
2022/02/13 01:34:10;;;;;;;2.67;1.60;;;;;;;;;;6241342;23;20082;-69
2022/02/13 01:36:35;;;;;;;1.52;1.42;;;;;;;;;;6189976;23;20008;-69
2022/02/13 01:39:01;;;;;;;2.28;1.33;;;;;;;;;;6214651;23;20040;-69
2022/02/13 01:41:27;;;;;;;1.95;1.80;;;;;;;;;;6241681;23;20058;-68
2022/02/13 01:43:56;;;;;;;2.55;1.35;;;;;;;;;;6214507;23;20027;-68
2022/02/13 01:46:22;;;;;;;1.65;1.55;;;;;;;;;;6241642;23;20008;-69
2022/02/13 01:48:48;;;;;;;1.70;1.60;;;;;;;;;;6241290;23;20039;-69
2022/02/13 01:51:14;;;;;;;1.80;1.67;;;;;;;;;;6241818;23;20012;-70
2022/02/13 01:53:40;;;;;;;1.50;1.38;;;;;;;;;;6241604;23;20016;-69
2022/02/13 01:56:05;;;;;;;1.77;1.67;;;;;;;;;;6214724;23;20030;-70
2022/02/13 01:58:32;;;;;;;1.45;1.35;;;;;;;;;;6241412;23;20062;-68
2022/02/13 02:00:59;;;;;;;2.20;1.90;;;;;;;;;;6240745;23;20449;-70
2022/02/13 02:03:25;;;;;;;1.77;1.67;;;;;;;;;;6241381;23;20020;-69
2022/02/13 02:05:51;;;;;;;3.17;1.73;;;;;;;;;;6241443;23;20443;-70
2022/02/13 02:08:17;;;;;;;1.10;1.10;;;;;;;;;;6241509;23;20016;-69
2022/02/13 02:10:42;;;;;;;1.80;1.70;;;;;;;;;;6214843;23;20483;-69
2022/02/13 02:13:08;;;;;;;2.55;1.60;;;;;;;;;;6241056;23;20039;-69
2022/02/13 02:15:34;;;;;;;1.42;1.33;;;;;;;;;;6241564;23;20008;-68
2022/02/13 02:18:00;;;;;;;1.40;1.40;;;;;;;;;;6241730;23;20019;-70
2022/02/13 02:20:28;;;;;;;2.05;1.70;;;;;;;;;;6243785;23;20368;-68
2022/02/13 02:22:54;;;;;;;2.53;1.88;;;;;;;;;;6242965;23;20020;-70
2022/02/13 02:25:20;;;;;;;1.88;1.73;;;;;;;;;;6243165;23;20138;-70
2022/02/13 02:27:46;;;;;;;3.15;1.83;;;;;;;;;;6243311;23;20036;-68
2022/02/13 02:30:12;;;;;;;3.38;1.90;;;;;;;;;;6216124;23;20330;-69
2022/02/13 02:32:38;;;;;;;1.70;1.60;;;;;;;;;;6243127;23;20121;-70
2022/02/13 02:35:04;;;;;;;1.83;1.73;;;;;;;;;;6242875;23;20004;-69
2022/02/13 02:37:30;;;;;;;1.60;1.50;;;;;;;;;;6242978;23;20012;-70
2022/02/13 02:39:56;;;;;;;3.25;1.90;;;;;;;;;;6242601;23;20015;-70
2022/02/13 02:42:22;;;;;;;2.55;2.15;;;;;;;;;;6243072;23;20016;-69
2022/02/13 02:44:47;;;;;;;3.10;1.95;;;;;;;;;;6242990;23;20018;-68
2022/02/13 02:47:13;;;;;;;1.67;1.58;;;;;;;;;;6216181;23;20357;-69
2022/02/13 02:49:39;;;;;;;2.53;1.98;;;;;;;;;;6242894;23;20015;-69
2022/02/13 02:52:05;;;;;;;1.98;1.67;;;;;;;;;;6242711;23;20069;-68
2022/02/13 02:54:31;;;;;;;2.33;1.75;;;;;;;;;;6242648;23;20055;-69
2022/02/13 02:56:57;;;;;;;1.60;1.55;;;;;;;;;;6242694;23;20069;-69
2022/02/13 02:59:23;;;;;;;2.22;1.70;;;;;;;;;;6242799;23;20096;-68
2022/02/13 03:01:49;;;;;;;3.78;1.98;;;;;;;;;;6242902;23;20378;-69
2022/02/13 03:04:15;;;;;;;2.03;1.92;;;;;;;;;;6215432;23;20020;-69
2022/02/13 03:06:41;;;;;;;1.85;1.75;;;;;;;;;;6243077;23;20396;-67
2022/02/13 03:09:07;;;;;;;1.77;1.60;;;;;;;;;;6242561;23;20020;-68
2022/02/13 03:11:33;;;;;;;1.40;1.40;;;;;;;;;;6242869;23;20471;-69
2022/02/13 03:13:59;;;;;;;5.78;1.80;;;;;;;;;;6242677;23;20352;-69
2022/02/13 03:16:24;;;;;;;4.15;2.40;;;;;;;;;;6242824;23;20036;-68
2022/02/13 03:18:50;;;;;;;1.88;1.67;;;;;;;;;;6216035;23;20579;-68
2022/02/13 03:21:16;;;;;;;2.63;2.35;;;;;;;;;;6242802;23;20018;-68
2022/02/13 03:23:42;;;;;;;2.10;2.00;;;;;;;;;;6242816;23;20103;-68
2022/02/13 07:06:18;;;;;;;3.15;2.20;;;;;;;;;;6211173;23;20539;-72
2022/02/13 07:08:44;;;;;;;2.63;1.70;;;;;;;;;;6211085;23;20741;-73
2022/02/13 07:11:10;;;;;;;3.08;2.03;;;;;;;;;;6209546;23;20016;-73
2022/02/13 07:13:35;;;;;;;2.90;2.22;;;;;;;;;;6210533;23;20039;-71
2022/02/13 07:16:01;;;;;;;1.92;1.83;;;;;;;;;;6211381;23;20595;-73
2022/02/13 07:18:27;;;;;;;1.90;1.77;;;;;;;;;;6159754;23;20012;-73
2022/02/13 07:20:53;;;;;;;1.58;1.52;;;;;;;;;;6211308;23;20023;-72
2022/02/13 07:23:19;;;;;;;2.40;2.25;;;;;;;;;;6209464;23;20469;-73
2022/02/13 07:25:45;;;;;;;2.00;1.90;;;;;;;;;;6210994;23;20019;-72
2022/02/13 07:30:57;;;;;;;3.10;2.78;;;;;;;;;;6188653;23;20572;-72
2022/02/13 07:33:23;;;;;;;4.35;2.38;;;;;;;;;;6210651;23;20062;-72
2022/02/13 07:35:49;;;;;;;4.05;2.17;;;;;;;;;;6210636;23;20044;-72
2022/02/13 07:38:18;;;;;;;2.17;1.98;;;;;;;;;;6208372;23;20019;-73
2022/02/13 07:40:44;;;;;;;2.85;2.05;;;;;;;;;;6205989;23;20039;-73
2022/02/13 07:43:11;;;;;;;3.25;1.92;;;;;;;;;;6156320;23;20025;-72
2022/02/13 07:45:38;;;;;;;2.63;2.40;;;;;;;;;;6208641;23;20062;-72
2022/02/13 07:48:04;;;;;;;2.17;1.98;;;;;;;;;;6204293;23;20040;-73
2022/02/13 07:50:30;;;;;;;3.92;2.10;;;;;;;;;;6205414;23;20009;-72
2022/02/13 07:52:56;;;;;;;2.40;1.77;;;;;;;;;;6182830;23;20075;-72
2022/02/13 07:55:22;;;;;;;3.03;2.08;;;;;;;;;;6210329;23;20009;-73
2022/02/13 07:57:48;;;;;;;3.20;1.80;;;;;;;;;;6209717;23;20016;-73
2022/02/13 08:00:14;;;;;;;7.95;2.50;;;;;;;;;;6210246;23;20012;-74
2022/02/13 08:02:40;;;;;;;5.18;2.13;;;;;;;;;;6132910;23;20063;-73
2022/02/13 08:05:06;;;;;;;2.42;2.20;;;;;;;;;;6228026;23;20028;-73
2022/02/13 08:07:32;;;;;;;4.10;2.42;;;;;;;;;;6240744;23;20016;-72
2022/02/13 08:09:58;;;;;;;2.17;1.98;;;;;;;;;;6240780;23;20036;-72
2022/02/13 08:12:24;;;;;;;2.78;2.15;;;;;;;;;;6240404;23;20099;-73
2022/02/13 08:14:50;;;;;;;1.90;1.80;;;;;;;;;;6271124;22;20015;-73
2022/02/13 08:17:17;;;;;;;5.70;2.70;;;;;;;;;;6243698;22;20016;-73
2022/02/13 08:19:43;;;;;;;2.67;1.92;;;;;;;;;;6270277;22;20502;-73
2022/02/13 08:22:27;;;;;;;2.50;1.65;;;;;;;;;;6244161;22;20011;-72
2022/02/13 08:24:54;;;;;;;4.57;1.70;;;;;;;;;;6271178;22;20341;-75
2022/02/13 08:27:23;;;;;;;2.45;2.25;;;;;;;;;;6269598;22;20042;-73
2022/02/13 08:29:51;;;;;;;4.03;2.58;;;;;;;;;;6193467;22;20015;-72
2022/02/13 08:32:17;;;;;;;3.08;2.00;;;;;;;;;;6269102;22;20517;-72
2022/02/13 08:34:43;;;;;;;4.80;2.53;;;;;;;;;;6267832;22;20012;-72
2022/02/13 08:37:09;;;;;;;2.80;2.22;;;;;;;;;;6267222;22;20460;-73
2022/02/13 08:39:35;;;;;;;3.70;2.55;;;;;;;;;;6240573;22;20015;-72
2022/02/13 08:42:01;;;;;;;3.42;2.65;;;;;;;;;;6241752;22;20091;-72
2022/02/13 08:44:27;;;;;;;4.28;2.35;;;;;;;;;;6269793;22;20050;-72
2022/02/13 08:46:53;;;;;;;2.35;2.00;;;;;;;;;;6216581;22;20095;-72
2022/02/13 08:49:19;;;;;;;3.00;2.20;;;;;;;;;;6269584;22;20012;-72
2022/02/13 08:51:45;;;;;;;3.30;2.45;;;;;;;;;;6269963;22;20085;-72
2022/02/13 08:54:11;;;;;;;3.08;2.40;;;;;;;;;;6269099;22;20011;-73
2022/02/13 08:56:37;;;;;;;2.45;2.25;;;;;;;;;;6242584;22;20039;-72
2022/02/13 08:59:03;;;;;;;2.20;1.98;;;;;;;;;;6269749;22;20091;-72
2022/02/13 09:01:29;;;;;;;3.50;2.47;;;;;;;;;;6267771;22;20142;-73
2022/02/13 09:03:59;;;;;;;3.95;2.78;;;;;;;;;;6267985;22;20427;-73
2022/02/13 09:06:25;;;;;;;2.55;2.35;;;;;;;;;;6272083;22;20019;-73
2022/02/13 09:08:51;;;;;;;4.65;2.45;;;;;;;;;;6272019;22;20039;-73
2022/02/13 09:11:17;;;;;;;2.17;2.00;;;;;;;;;;6269499;22;20019;-75
2022/02/13 09:13:43;;;;;;;3.88;2.47;;;;;;;;;;6242514;22;20035;-72
2022/02/13 09:16:09;;;;;;;3.90;2.67;;;;;;;;;;6272195;22;20448;-73
2022/02/13 09:18:35;;;;;;;2.45;2.30;;;;;;;;;;6246760;22;20012;-72
2022/02/13 09:21:01;;;;;;;2.50;2.30;;;;;;;;;;6273649;22;20011;-71
2022/02/13 09:23:27;;;;;;;2.65;2.30;;;;;;;;;;6273429;22;20363;-72
2022/02/13 09:25:53;;;;;;;2.33;2.10;;;;;;;;;;6273239;22;20014;-71
2022/02/13 09:28:19;;;;;;;5.05;2.35;;;;;;;;;;6246953;22;20043;-71
2022/02/13 09:30:47;;;;;;;2.50;2.30;;;;;;;;;;6196646;22;20417;-71
2022/02/13 09:33:13;;;;;;;2.42;1.95;;;;;;;;;;6274041;22;20039;-71
2022/02/13 09:35:39;;;;;;;4.10;2.25;;;;;;;;;;6221563;22;20033;-72
2022/02/13 09:38:05;;;;;;;3.40;2.58;;;;;;;;;;6274305;22;20012;-71
2022/02/13 09:40:33;;;;;;;2.05;1.90;;;;;;;;;;6273427;22;20093;-73
2022/02/13 09:43:00;;;;;;;2.35;2.15;;;;;;;;;;6273609;22;20082;-72
2022/02/13 09:45:26;;;;;;;5.15;2.60;;;;;;;;;;6273592;22;20012;-72
2022/02/13 09:47:51;;;;;;;2.90;2.58;;;;;;;;;;6245821;22;20019;-73
2022/02/13 09:50:18;;;;;;;12.20;2.47;;;;;;;;;;6245026;22;20012;-73
2022/02/13 09:52:44;;;;;;;2.33;2.10;;;;;;;;;;6274180;22;20015;-73
2022/02/13 09:55:10;;;;;;;2.80;1.73;;;;;;;;;;6273919;22;20087;-72
2022/02/13 10:00:21;;;;;;;2.13;1.90;;;;;;;;;;6246640;22;20478;-72
2022/02/13 10:02:47;;;;;;;3.33;2.33;;;;;;;;;;6221468;22;20462;-73
2022/02/13 10:05:13;;;;;;;4.65;1.85;;;;;;;;;;6273540;22;20028;-72
2022/02/13 10:07:39;;;;;;;3.20;2.08;;;;;;;;;;6273974;22;20019;-72
2022/02/13 10:10:06;;;;;;;3.22;2.10;;;;;;;;;;6247146;22;20364;-73
2022/02/13 10:12:44;;;;;;;1.77;1.67;;;;;;;;;;6246712;22;20011;-73
2022/02/13 10:15:30;;;;;;;3.47;2.20;;;;;;;;;;6273730;22;20015;-73
2022/02/13 10:17:57;;;;;;;5.35;2.10;;;;;;;;;;6221607;22;20020;-72
2022/02/13 10:20:42;;;;;;;3.15;2.05;;;;;;;;;;6273557;22;20057;-72
2022/02/13 10:23:08;;;;;;;3.58;1.98;;;;;;;;;;6273615;22;20019;-72
2022/02/13 10:25:34;;;;;;;2.13;1.98;;;;;;;;;;6273352;22;20070;-72
2022/02/13 10:28:07;;;;;;;2.78;2.03;;;;;;;;;;6246861;22;20019;-72
2022/02/13 10:30:37;;;;;;;3.88;2.45;;;;;;;;;;6273471;22;20018;-73
2022/02/13 10:33:13;;;;;;;3.58;1.95;;;;;;;;;;6273841;22;20023;-73
2022/02/13 10:35:39;;;;;;;2.55;1.80;;;;;;;;;;6246443;22;20104;-73
2022/02/13 10:38:04;;;;;;;3.00;1.83;;;;;;;;;;6273645;22;20043;-73
2022/02/13 10:40:32;;;;;;;2.15;1.80;;;;;;;;;;6245896;22;20058;-72
2022/02/13 10:43:01;;;;;;;2.78;2.10;;;;;;;;;;6246826;22;20092;-73
2022/02/13 10:45:27;;;;;;;5.63;2.42;;;;;;;;;;6273440;22;20116;-72
2022/02/13 10:47:58;;;;;;;1.75;1.48;;;;;;;;;;6273797;22;20023;-72
2022/02/13 10:50:24;;;;;;;2.58;1.75;;;;;;;;;;6221919;22;20482;-73
2022/02/13 10:52:51;;;;;;;3.60;2.47;;;;;;;;;;6274115;22;20444;-73
2022/02/13 10:55:17;;;;;;;4.75;2.83;;;;;;;;;;6246322;22;20368;-73
2022/02/13 10:57:43;;;;;;;2.63;1.88;;;;;;;;;;6246464;22;20012;-72
2022/02/13 11:00:12;;;;;;;3.10;2.50;;;;;;;;;;6273560;22;20012;-73
2022/02/13 11:02:41;;;;;;;2.35;2.15;;;;;;;;;;6245921;22;20471;-71
2022/02/13 11:05:07;;;;;;;2.50;2.05;;;;;;;;;;6244697;22;20055;-73
2022/02/13 11:07:34;;;;;;;2.35;1.73;;;;;;;;;;6220488;22;20015;-73
2022/02/13 11:10:01;;;;;;;2.00;1.90;;;;;;;;;;6221205;22;20015;-73
2022/02/13 11:12:28;;;;;;;3.50;2.03;;;;;;;;;;6273597;22;20046;-73
2022/02/13 11:15:12;;;;;;;3.25;2.25;;;;;;;;;;6264112;22;20401;-73
2022/02/13 11:17:38;;;;;;;2.15;2.05;;;;;;;;;;6243628;22;20011;-74
2022/02/13 11:20:04;;;;;;;2.42;2.22;;;;;;;;;;6244670;22;20445;-74
2022/02/13 11:22:31;;;;;;;4.03;2.35;;;;;;;;;;6217993;22;20463;-74
2022/02/13 11:24:57;;;;;;;2.30;2.10;;;;;;;;;;6271693;22;20023;-73
2022/02/13 11:27:25;;;;;;;2.40;1.90;;;;;;;;;;6270267;22;20057;-72
2022/02/13 11:29:55;;;;;;;3.35;2.40;;;;;;;;;;6244828;22;20016;-72
2022/02/13 11:32:37;;;;;;;2.97;1.70;;;;;;;;;;6244198;22;20384;-72
2022/02/13 11:35:05;;;;;;;1.90;1.80;;;;;;;;;;6270653;22;20460;-73
2022/02/13 11:37:40;;;;;;;4.70;2.70;;;;;;;;;;6219296;22;20031;-73
2022/02/13 11:40:07;;;;;;;2.75;2.42;;;;;;;;;;6244768;22;20015;-73
2022/02/13 11:42:37;;;;;;;6.22;2.42;;;;;;;;;;6271377;22;20118;-73
2022/02/13 11:45:18;;;;;;;2.25;1.88;;;;;;;;;;6270162;22;20585;-72
2022/02/13 11:47:46;;;;;;;7.05;2.65;;;;;;;;;;6244953;22;20594;-72
2022/02/13 11:50:14;;;;;;;1.95;1.85;;;;;;;;;;6219429;22;20345;-73
2022/02/13 11:52:42;;;;;;;2.00;1.90;;;;;;;;;;6244302;22;20081;-72
2022/02/13 11:55:12;;;;;;;6.88;2.25;;;;;;;;;;6271702;22;20016;-73
2022/02/13 11:57:39;;;;;;;3.80;2.73;;;;;;;;;;6269921;22;20073;-72
2022/02/13 12:00:09;;;;;;;2.20;2.05;;;;;;;;;;6219083;22;20073;-72
2022/02/13 12:02:35;;;;;;;2.33;2.13;;;;;;;;;;6271183;22;20018;-72
2022/02/13 12:05:09;;;;;;;4.55;2.55;;;;;;;;;;6270977;22;20094;-73
2022/02/13 12:07:38;;;;;;;3.38;2.70;;;;;;;;;;6271065;22;20023;-72
2022/02/13 12:10:10;;;;;;;2.35;2.13;;;;;;;;;;6243983;22;20015;-72
2022/02/13 12:12:36;;;;;;;1.73;1.63;;;;;;;;;;6244133;22;20007;-73
2022/02/13 12:15:02;;;;;;;3.38;2.50;;;;;;;;;;6241390;22;20011;-72
2022/02/13 12:17:28;;;;;;;3.63;2.15;;;;;;;;;;6244522;22;20014;-72
2022/02/13 12:20:00;;;;;;;4.20;2.55;;;;;;;;;;6271121;22;20011;-73
2022/02/13 12:22:27;;;;;;;2.42;2.22;;;;;;;;;;6243824;22;20035;-73
2022/02/13 12:24:53;;;;;;;3.60;1.67;;;;;;;;;;6244199;22;20391;-72
2022/02/13 12:27:20;;;;;;;2.13;1.85;;;;;;;;;;6243565;22;20018;-73
2022/02/13 12:30:04;;;;;;;4.00;1.90;;;;;;;;;;6243639;22;20368;-73
2022/02/13 12:32:37;;;;;;;2.30;1.90;;;;;;;;;;6244488;22;20015;-73
2022/02/13 12:35:05;;;;;;;2.42;2.22;;;;;;;;;;6271243;22;20337;-72
2022/02/13 12:37:51;;;;;;;3.05;2.08;;;;;;;;;;6269618;22;20069;-74
2022/02/13 12:40:21;;;;;;;2.00;1.85;;;;;;;;;;6270870;22;20477;-72
2022/02/13 12:42:47;;;;;;;5.28;2.30;;;;;;;;;;6241995;22;20969;-72
2022/02/13 12:45:33;;;;;;;1.85;1.75;;;;;;;;;;6269909;22;20022;-72
2022/02/13 12:48:18;;;;;;;4.00;2.33;;;;;;;;;;6246923;22;20058;-72
2022/02/13 12:51:03;;;;;;;2.47;1.77;;;;;;;;;;6270240;22;20054;-72
2022/02/13 12:53:48;;;;;;;2.30;2.10;;;;;;;;;;6268982;22;20078;-73
2022/02/13 12:56:33;;;;;;;1.63;1.52;;;;;;;;;;6247641;22;20022;-74
2022/02/13 12:59:17;;;;;;;2.67;2.58;;;;;;;;;;6270957;22;20363;-73
2022/02/13 13:02:16;;;;;;;3.05;2.13;;;;;;;;;;6268522;22;20026;-73
2022/02/13 13:04:42;;;;;;;2.67;1.98;;;;;;;;;;6270602;22;20030;-73
2022/02/13 13:07:17;;;;;;;4.15;1.98;;;;;;;;;;6270720;22;20008;-73
2022/02/13 13:09:43;;;;;;;3.90;2.30;;;;;;;;;;6269592;22;20444;-73
2022/02/13 13:12:19;;;;;;;1.85;1.75;;;;;;;;;;6270034;22;20015;-73
2022/02/13 13:14:55;;;;;;;2.92;2.00;;;;;;;;;;6268608;22;20015;-72
2022/02/13 13:17:21;;;;;;;2.17;1.98;;;;;;;;;;6267507;22;20460;-71
2022/02/13 13:19:51;;;;;;;2.83;2.38;;;;;;;;;;6270085;22;20099;-73
2022/02/13 13:22:21;;;;;;;3.63;3.20;;;;;;;;;;6269345;22;20010;-72
2022/02/13 13:24:48;;;;;;;4.63;2.70;;;;;;;;;;6244023;22;20023;-72
2022/02/13 13:27:24;;;;;;;2.88;2.55;;;;;;;;;;6269583;22;20018;-72
2022/02/13 13:29:50;;;;;;;3.08;2.17;;;;;;;;;;6268728;22;20011;-72
2022/02/13 13:32:18;;;;;;;2.95;1.85;;;;;;;;;;6242490;22;20014;-73
2022/02/13 13:34:43;;;;;;;3.38;2.53;;;;;;;;;;6243766;22;20045;-72
2022/02/13 13:37:19;;;;;;;6.50;5.13;;;;;;;;;;6270182;22;20012;-72
2022/02/13 13:40:02;;;;;;;5.18;3.33;;;;;;;;;;6269168;22;20471;-72
2022/02/13 13:42:30;;;;;;;9.07;5.00;;;;;;;;;;6217136;22;20011;-73
2022/02/13 13:45:08;;;;;;;4.38;3.78;;;;;;;;;;6243542;22;20106;-72
2022/02/13 13:47:34;;;;;;;3.35;3.10;;;;;;;;;;6242682;22;20019;-72
2022/02/13 13:50:00;;;;;;;3.33;2.72;;;;;;;;;;6269497;22;20011;-73
2022/02/13 13:52:26;;;;;;;2.03;1.92;;;;;;;;;;6241229;22;20333;-73
2022/02/13 13:54:52;;;;;;;2.72;1.80;;;;;;;;;;6269725;22;20034;-72
2022/02/13 13:57:18;;;;;;;2.20;2.00;;;;;;;;;;6240242;22;20093;-73
2022/02/13 13:59:45;;;;;;;2.53;2.17;;;;;;;;;;6268442;22;20012;-72
2022/02/13 14:02:26;;;;;;;1.73;1.63;;;;;;;;;;6268126;22;20533;-73
2022/02/13 14:04:52;;;;;;;2.40;2.10;;;;;;;;;;6269013;22;20028;-72
2022/02/13 14:07:18;;;;;;;2.00;1.90;;;;;;;;;;6242781;22;20043;-72
2022/02/13 14:09:44;;;;;;;3.28;2.78;;;;;;;;;;6269734;22;20018;-73
2022/02/13 14:12:12;;;;;;;3.10;2.83;;;;;;;;;;6269861;22;20014;-72
2022/02/13 14:14:39;;;;;;;5.72;3.13;;;;;;;;;;6243881;22;20050;-73
2022/02/13 14:17:06;;;;;;;3.55;2.40;;;;;;;;;;6244242;22;20019;-72
2022/02/13 14:19:32;;;;;;;4.07;2.95;;;;;;;;;;6244209;22;20019;-72
2022/02/13 14:21:58;;;;;;;4.70;2.85;;;;;;;;;;6246905;22;20011;-72
2022/02/13 14:24:23;;;;;;;3.42;2.78;;;;;;;;;;6273727;22;20118;-72
2022/02/13 14:26:49;;;;;;;3.30;3.00;;;;;;;;;;6272551;22;20012;-72
2022/02/13 14:29:15;;;;;;;2.95;2.70;;;;;;;;;;6274235;22;20082;-72
2022/02/13 14:31:43;;;;;;;4.07;3.67;;;;;;;;;;6246623;22;20013;-72
2022/02/13 14:34:16;;;;;;;5.03;2.60;;;;;;;;;;6246950;22;20018;-72
2022/02/13 14:36:45;;;;;;;4.00;2.65;;;;;;;;;;6246519;22;20007;-71
2022/02/13 14:39:11;;;;;;;2.28;2.03;;;;;;;;;;6274028;22;20536;-71
2022/02/13 14:41:37;;;;;;;3.42;3.13;;;;;;;;;;6246595;22;20072;-72
2022/02/13 14:44:04;;;;;;;2.65;2.20;;;;;;;;;;6273856;22;20528;-72
2022/02/13 14:46:29;;;;;;;2.55;2.35;;;;;;;;;;6273420;22;20090;-72
2022/02/13 14:49:00;;;;;;;2.90;2.42;;;;;;;;;;6274096;22;20089;-72
2022/02/13 14:51:26;;;;;;;3.03;2.58;;;;;;;;;;6222253;22;20008;-73
2022/02/13 14:53:53;;;;;;;3.83;2.55;;;;;;;;;;6245467;22;20094;-73
2022/02/13 14:56:19;;;;;;;2.08;1.98;;;;;;;;;;6246055;22;20082;-73
2022/02/13 14:58:44;;;;;;;1.92;1.83;;;;;;;;;;6245307;22;20466;-73
2022/02/13 15:01:10;;;;;;;2.38;2.17;;;;;;;;;;6272327;22;20008;-73
2022/02/13 15:03:38;;;;;;;3.55;2.90;;;;;;;;;;6244435;22;20054;-73
2022/02/13 15:06:07;;;;;;;2.35;2.15;;;;;;;;;;6271768;22;20103;-73
2022/02/13 15:08:33;;;;;;;2.60;2.40;;;;;;;;;;6244729;22;20440;-74
2022/02/13 15:11:00;;;;;;;3.83;2.45;;;;;;;;;;6271893;22;20007;-73
2022/02/13 15:13:27;;;;;;;3.65;2.72;;;;;;;;;;6272130;22;20012;-73
2022/02/13 15:15:52;;;;;;;4.20;2.47;;;;;;;;;;6244990;22;20074;-73
2022/02/13 15:18:18;;;;;;;4.72;3.05;;;;;;;;;;6272361;22;20016;-73
2022/02/13 15:20:44;;;;;;;2.88;2.67;;;;;;;;;;6271978;22;20091;-73
2022/02/13 15:23:10;;;;;;;3.80;2.95;;;;;;;;;;6272310;22;20045;-74
2022/02/13 15:25:36;;;;;;;5.68;2.80;;;;;;;;;;6272133;22;20011;-74
2022/02/13 15:28:02;;;;;;;5.63;3.45;;;;;;;;;;6246280;22;20019;-73
2022/02/13 15:30:28;;;;;;;4.72;4.32;;;;;;;;;;6277777;22;20012;-73
2022/02/13 15:32:57;;;;;;;5.75;3.28;;;;;;;;;;6281692;22;20360;-72
2022/02/13 15:35:23;;;;;;;4.28;3.10;;;;;;;;;;6282985;22;20011;-73
2022/02/13 15:37:49;;;;;;;4.63;3.72;;;;;;;;;;6283024;22;20069;-73
2022/02/13 15:40:15;;;;;;;4.05;3.63;;;;;;;;;;6273428;22;20099;-72
2022/02/13 15:42:44;;;;;;;2.83;2.38;;;;;;;;;;6270185;22;20034;-74
2022/02/13 15:45:10;;;;;;;2.65;2.45;;;;;;;;;;6260364;22;20863;-74
2022/02/13 15:47:36;;;;;;;5.47;3.38;;;;;;;;;;6266005;22;20018;-74
2022/02/13 15:50:03;;;;;;;3.30;3.03;;;;;;;;;;6244461;22;20098;-72
2022/02/13 15:52:28;;;;;;;5.45;3.97;;;;;;;;;;6269101;22;20015;-73
2022/02/13 15:54:54;;;;;;;13.57;4.18;;;;;;;;;;6244348;22;20034;-73
2022/02/13 15:57:22;;;;;;;4.63;3.03;;;;;;;;;;6268751;22;20014;-73
2022/02/13 15:59:49;;;;;;;3.67;3.30;;;;;;;;;;6270461;22;20479;-73
2022/02/13 16:02:15;;;;;;;6.03;3.55;;;;;;;;;;6272040;22;20027;-72
2022/02/13 16:04:42;;;;;;;4.35;3.45;;;;;;;;;;6241138;22;20077;-74
2022/02/13 16:07:08;;;;;;;3.83;3.53;;;;;;;;;;6272280;22;20024;-73
2022/02/13 16:09:35;;;;;;;8.50;4.25;;;;;;;;;;6271144;22;20015;-73
2022/02/13 16:12:01;;;;;;;4.28;3.83;;;;;;;;;;6271002;22;20019;-73
2022/02/13 16:14:28;;;;;;;5.93;4.78;;;;;;;;;;6268763;22;20535;-73
2022/02/13 16:16:57;;;;;;;6.50;4.40;;;;;;;;;;6245219;22;20012;-74
2022/02/13 16:19:24;;;;;;;4.07;3.67;;;;;;;;;;6270791;22;20046;-73
2022/02/13 16:21:50;;;;;;;7.68;4.20;;;;;;;;;;6242986;22;20012;-73
2022/02/13 16:24:16;;;;;;;6.30;3.78;;;;;;;;;;6241768;22;20024;-72
2022/02/13 16:26:42;;;;;;;4.90;4.50;;;;;;;;;;6243120;22;20014;-73
2022/02/13 16:29:08;;;;;;;3.95;3.53;;;;;;;;;;6216902;22;20016;-74
2022/02/13 16:31:36;;;;;;;2.78;2.55;;;;;;;;;;6269997;22;20057;-73
2022/02/13 16:34:02;;;;;;;5.78;3.38;;;;;;;;;;6244234;22;20015;-73
2022/02/13 16:36:28;;;;;;;5.22;3.47;;;;;;;;;;6270353;22;20459;-74
2022/02/13 16:38:55;;;;;;;5.70;3.70;;;;;;;;;;6270830;22;20015;-74
2022/02/13 16:41:21;;;;;;;6.78;4.15;;;;;;;;;;6271523;22;20072;-74
2022/02/13 16:43:51;;;;;;;5.40;4.35;;;;;;;;;;6243407;22;20028;-74
2022/02/13 16:46:17;;;;;;;6.15;3.67;;;;;;;;;;6192064;22;20019;-74
2022/02/13 16:48:43;;;;;;;5.20;3.90;;;;;;;;;;6271568;22;20092;-74
2022/02/13 16:51:10;;;;;;;5.22;4.38;;;;;;;;;;6245108;22;20015;-74
2022/02/13 16:53:44;;;;;;;5.38;4.40;;;;;;;;;;6271205;22;20018;-73
2022/02/13 16:56:10;;;;;;;6.22;4.60;;;;;;;;;;6244432;22;20016;-74
2022/02/13 16:58:36;;;;;;;3.22;2.92;;;;;;;;;;6270912;22;20397;-73
2022/02/13 17:01:02;;;;;;;7.78;4.78;;;;;;;;;;6270290;22;20023;-74
2022/02/13 17:03:28;;;;;;;7.20;5.03;;;;;;;;;;6271176;22;20432;-75
2022/02/13 17:05:55;;;;;;;9.35;4.95;;;;;;;;;;6268255;22;20471;-74
2022/02/13 17:08:22;;;;;;;13.45;5.07;;;;;;;;;;6244406;22;20015;-75
2022/02/13 17:10:52;;;;;;;9.20;4.93;;;;;;;;;;6243872;22;20105;-72
2022/02/13 17:13:19;;;;;;;9.70;5.60;;;;;;;;;;6244560;22;20054;-72
2022/02/13 17:15:45;;;;;;;3.70;3.40;;;;;;;;;;6243895;22;20420;-73
2022/02/13 17:18:11;;;;;;;6.35;4.80;;;;;;;;;;6271341;22;20086;-73
2022/02/13 17:20:37;;;;;;;6.30;5.18;;;;;;;;;;6269230;22;20043;-72
2022/02/13 17:23:03;;;;;;;7.20;5.65;;;;;;;;;;6267482;22;20015;-73
2022/02/13 17:25:29;;;;;;;9.50;5.63;;;;;;;;;;6271851;22;20016;-72
2022/02/13 17:27:57;;;;;;;10.98;5.57;;;;;;;;;;6270163;22;20008;-72
2022/02/13 17:30:23;;;;;;;5.10;4.70;;;;;;;;;;6270974;22;20536;-72
2022/02/13 17:32:49;;;;;;;12.77;4.85;;;;;;;;;;6268690;22;20094;-73
2022/02/13 17:35:15;;;;;;;5.78;4.28;;;;;;;;;;6241796;22;20022;-72
2022/02/13 17:37:41;;;;;;;7.85;5.45;;;;;;;;;;6243522;22;20011;-72
2022/02/13 17:40:08;;;;;;;10.38;5.63;;;;;;;;;;6271815;22;20039;-72
2022/02/13 17:42:34;;;;;;;8.25;6.00;;;;;;;;;;6271031;22;20086;-71
2022/02/13 17:45:02;;;;;;;6.75;5.80;;;;;;;;;;6243899;22;20478;-72
2022/02/13 17:47:29;;;;;;;7.35;6.50;;;;;;;;;;6269496;22;20012;-72
2022/02/13 17:49:55;;;;;;;7.82;7.00;;;;;;;;;;6274092;22;20459;-71
2022/02/13 17:52:28;;;;;;;9.07;6.35;;;;;;;;;;6273600;22;20015;-72
2022/02/13 17:54:54;;;;;;;9.27;5.68;;;;;;;;;;6274016;22;20016;-71
2022/02/13 17:57:20;;;;;;;6.78;4.00;;;;;;;;;;6272874;22;20062;-71
2022/02/13 17:59:46;;;;;;;9.88;5.03;;;;;;;;;;6272331;22;20013;-72
2022/02/13 18:02:12;;;;;;;6.68;4.28;;;;;;;;;;6270141;22;20008;-73
2022/02/13 18:04:38;;;;;;;9.73;4.28;;;;;;;;;;6271503;22;20040;-72
2022/02/13 18:07:03;;;;;;;7.20;4.13;;;;;;;;;;6271047;22;20019;-73
2022/02/13 18:09:29;;;;;;;7.00;4.72;;;;;;;;;;6244137;22;20458;-73
2022/02/13 18:11:55;;;;;;;5.45;3.83;;;;;;;;;;6270666;22;20012;-72
2022/02/13 18:14:21;;;;;;;7.40;4.97;;;;;;;;;;6271245;22;20352;-73
2022/02/13 18:16:47;;;;;;;5.28;4.20;;;;;;;;;;6243307;22;20425;-72
2022/02/13 18:19:13;;;;;;;8.18;4.68;;;;;;;;;;6271820;22;20095;-73
2022/02/13 18:21:40;;;;;;;3.65;3.35;;;;;;;;;;6244366;22;20023;-74
2022/02/13 18:24:06;;;;;;;5.70;3.75;;;;;;;;;;6245014;22;20023;-74
2022/02/13 18:26:32;;;;;;;6.28;3.90;;;;;;;;;;6270965;22;20456;-74
2022/02/13 18:28:58;;;;;;;6.80;3.58;;;;;;;;;;6271392;22;20008;-74
2022/02/13 18:31:27;;;;;;;6.53;3.78;;;;;;;;;;6270783;22;20013;-72